Wetterdaten: Woche 14.01.08 - 20.01.08 (KW3)
Datum Zeit Temperatur Luftfeuchte Luftdruck Niederschlag Wind Richtung Sonnenschein Solar Taupunkt Windchill Windben
14.01.2008 00:00 2.2 C 86 % 1014.8 hPa 0.0 l/m 2.5 km/h (1 Bft) O-SO 0.00 h 0 W/m 0.1 C 2.0 C 4.1 km/h (1 Bft)
14.01.2008 01:00 2.1 C 87 % 1014.7 hPa 0.0 l/m 1.3 km/h (1 Bft) O-SO 0.00 h 0 W/m 0.2 C 2.1 C 2.3 km/h (1 Bft)
14.01.2008 02:00 2.0 C 87 % 1014.9 hPa 0.0 l/m 0.6 km/h (0 Bft) O-SO 0.00 h 0 W/m 0.1 C 2.0 C 1.9 km/h (1 Bft)
14.01.2008 03:00 2.0 C 87 % 1014.7 hPa 0.0 l/m 1.6 km/h (1 Bft) O-SO 0.00 h 0 W/m 0.0 C 1.9 C 2.9 km/h (1 Bft)
14.01.2008 04:00 1.9 C 88 % 1014.4 hPa 0.0 l/m 0.7 km/h (0 Bft) O-SO 0.00 h 0 W/m 0.1 C 1.9 C 1.7 km/h (1 Bft)
14.01.2008 05:00 1.6 C 91 % 1014.3 hPa 0.0 l/m 1.3 km/h (1 Bft) O-SO 0.00 h 0 W/m 0.2 C 1.5 C 2.5 km/h (1 Bft)
14.01.2008 06:00 1.4 C 91 % 1014.8 hPa 0.0 l/m 0.6 km/h (0 Bft) S-SO 0.00 h 0 W/m 0.1 C 1.4 C 1.8 km/h (1 Bft)
14.01.2008 07:00 1.2 C 90 % 1015.4 hPa 0.0 l/m 0.7 km/h (0 Bft) S-SW 0.00 h 0 W/m -0.2 C 1.2 C 2.1 km/h (1 Bft)
14.01.2008 08:00 1.0 C 90 % 1015.9 hPa 0.0 l/m 0.1 km/h (0 Bft) S 0.00 h 14 W/m -0.4 C 1.0 C 0.7 km/h (0 Bft)
14.01.2008 09:00 1.2 C 90 % 1016.3 hPa 0.0 l/m 0.9 km/h (0 Bft) SO 0.00 h 55 W/m -0.2 C 1.2 C 2.0 km/h (1 Bft)
14.01.2008 10:00 1.6 C 88 % 1016.7 hPa 0.0 l/m 0.5 km/h (0 Bft) S-SO 0.00 h 93 W/m -0.1 C 1.6 C 2.0 km/h (1 Bft)
14.01.2008 11:00 2.2 C 87 % 1016.5 hPa 0.0 l/m 1.4 km/h (1 Bft) S-SW 0.28 h 154 W/m 0.2 C 2.1 C 3.2 km/h (1 Bft)
14.01.2008 12:00 2.4 C 85 % 1015.9 hPa 0.0 l/m 2.9 km/h (1 Bft) W 0.28 h 164 W/m 0.2 C 2.3 C 4.7 km/h (1 Bft)
14.01.2008 13:00 2.8 C 84 % 1015.3 hPa 0.0 l/m 0.9 km/h (0 Bft) W-NW 0.10 h 149 W/m 0.5 C 2.8 C 2.2 km/h (1 Bft)
14.01.2008 14:00 3.4 C 83 % 1014.8 hPa 0.0 l/m 1.0 km/h (0 Bft) SW 0.18 h 117 W/m 0.7 C 3.4 C 2.9 km/h (1 Bft)
14.01.2008 15:00 3.2 C 83 % 1014.9 hPa 0.0 l/m 0.8 km/h (0 Bft) S-SW 0.00 h 39 W/m 0.6 C 3.2 C 2.4 km/h (1 Bft)
14.01.2008 16:00 3.3 C 85 % 1015.0 hPa 0.0 l/m 0.7 km/h (0 Bft) S 0.00 h 14 W/m 1.0 C 3.3 C 1.8 km/h (1 Bft)
14.01.2008 17:00 3.1 C 87 % 1015.0 hPa 0.4 l/m 2.5 km/h (1 Bft) S-SO 0.00 h 0 W/m 1.2 C 2.9 C 4.2 km/h (1 Bft)
14.01.2008 18:00 3.0 C 90 % 1015.5 hPa 0.4 l/m 0.3 km/h (0 Bft) O-SO 0.00 h 0 W/m 1.4 C 3.0 C 1.4 km/h (1 Bft)
14.01.2008 19:00 2.7 C 92 % 1016.2 hPa 0.8 l/m 0.7 km/h (0 Bft) O-SO 0.00 h 0 W/m 1.6 C 2.7 C 1.9 km/h (1 Bft)
14.01.2008 20:00 2.7 C 94 % 1016.2 hPa 0.6 l/m 0.3 km/h (0 Bft) O-SO 0.00 h 0 W/m 1.8 C 2.7 C 0.8 km/h (0 Bft)
14.01.2008 21:00 2.7 C 95 % 1016.4 hPa 0.4 l/m 1.9 km/h (1 Bft) SO 0.00 h 0 W/m 2.0 C 2.7 C 4.0 km/h (1 Bft)
14.01.2008 22:00 2.7 C 95 % 1016.6 hPa 0.2 l/m 2.8 km/h (1 Bft) O-SO 0.00 h 0 W/m 2.0 C 2.7 C 4.8 km/h (1 Bft)
14.01.2008 23:00 2.8 C 95 % 1016.3 hPa 0.0 l/m 2.0 km/h (1 Bft) SO 0.00 h 0 W/m 2.1 C 2.7 C 3.7 km/h (1 Bft)
15.01.2008 00:00 2.7 C 94 % 1016.0 hPa 0.0 l/m 1.8 km/h (1 Bft) O-SO 0.00 h 0 W/m 1.9 C 2.5 C 3.5 km/h (1 Bft)
15.01.2008 01:00 2.6 C 94 % 1015.9 hPa 0.0 l/m 1.7 km/h (1 Bft) S-SO 0.00 h 0 W/m 1.7 C 2.5 C 3.9 km/h (1 Bft)
15.01.2008 02:00 2.3 C 94 % 1015.5 hPa 0.0 l/m 1.8 km/h (1 Bft) SO 0.00 h 0 W/m 1.5 C 2.3 C 3.4 km/h (1 Bft)
15.01.2008 03:00 2.5 C 94 % 1015.6 hPa 0.0 l/m 1.7 km/h (1 Bft) SO 0.00 h 0 W/m 1.6 C 2.3 C 3.3 km/h (1 Bft)
15.01.2008 04:00 2.7 C 94 % 1015.4 hPa 0.0 l/m 1.2 km/h (1 Bft) SO 0.00 h 0 W/m 1.8 C 2.7 C 3.0 km/h (1 Bft)
15.01.2008 05:00 2.8 C 94 % 1015.1 hPa 0.0 l/m 1.9 km/h (1 Bft) SO 0.00 h 0 W/m 1.9 C 2.7 C 3.7 km/h (1 Bft)
15.01.2008 06:00 2.8 C 94 % 1014.9 hPa 0.0 l/m 0.4 km/h (0 Bft) S-SO 0.00 h 0 W/m 1.9 C 2.8 C 1.3 km/h (1 Bft)
15.01.2008 07:00 2.6 C 94 % 1014.9 hPa 0.0 l/m 0.6 km/h (0 Bft) O 0.00 h 0 W/m 1.8 C 2.6 C 1.9 km/h (1 Bft)
15.01.2008 08:00 2.7 C 95 % 1014.7 hPa 0.0 l/m 1.0 km/h (0 Bft) S 0.02 h 21 W/m 1.9 C 2.7 C 2.4 km/h (1 Bft)
15.01.2008 09:00 2.8 C 92 % 1014.4 hPa 0.0 l/m 0.4 km/h (0 Bft) S 0.35 h 84 W/m 1.7 C 2.7 C 1.2 km/h (1 Bft)
15.01.2008 10:00 3.6 C 89 % 1014.2 hPa 0.0 l/m 0.7 km/h (0 Bft) O 0.22 h 127 W/m 2.0 C 3.6 C 1.9 km/h (1 Bft)
15.01.2008 11:00 4.3 C 88 % 1013.4 hPa 0.0 l/m 1.3 km/h (1 Bft) S-SW 0.02 h 114 W/m 2.5 C 4.2 C 3.3 km/h (1 Bft)
15.01.2008 12:00 4.7 C 87 % 1012.6 hPa 0.0 l/m 1.9 km/h (1 Bft) S 0.03 h 140 W/m 2.7 C 4.6 C 4.2 km/h (1 Bft)
15.01.2008 13:00 5.3 C 85 % 1011.0 hPa 0.0 l/m 3.0 km/h (1 Bft) S-SO 0.45 h 175 W/m 3.1 C 5.1 C 5.4 km/h (1 Bft)
15.01.2008 14:00 6.4 C 82 % 1009.7 hPa 0.0 l/m 3.9 km/h (1 Bft) S 0.83 h 191 W/m 3.5 C 5.9 C 7.7 km/h (2 Bft)
15.01.2008 15:00 6.1 C 81 % 1009.0 hPa 0.2 l/m 4.2 km/h (1 Bft) S-SO 0.43 h 99 W/m 3.1 C 5.6 C 7.2 km/h (2 Bft)
15.01.2008 16:00 5.4 C 83 % 1008.3 hPa 0.0 l/m 4.4 km/h (1 Bft) S-SO 0.07 h 28 W/m 2.6 C 4.8 C 7.6 km/h (2 Bft)
15.01.2008 17:00 4.7 C 85 % 1007.6 hPa 0.0 l/m 2.1 km/h (1 Bft) S-SO 0.00 h 0 W/m 2.3 C 4.6 C 4.4 km/h (1 Bft)
15.01.2008 18:00 3.6 C 88 % 1007.0 hPa 0.0 l/m 1.9 km/h (1 Bft) S-SO 0.00 h 0 W/m 1.7 C 3.5 C 3.3 km/h (1 Bft)
15.01.2008 19:00 2.9 C 91 % 1006.2 hPa 0.0 l/m 1.7 km/h (1 Bft) S-SO 0.00 h 0 W/m 1.6 C 2.9 C 2.8 km/h (1 Bft)
15.01.2008 20:00 2.7 C 92 % 1005.1 hPa 0.0 l/m 1.2 km/h (1 Bft) S-SO 0.00 h 0 W/m 1.6 C 2.7 C 2.4 km/h (1 Bft)
15.01.2008 21:00 2.7 C 93 % 1004.2 hPa 0.0 l/m 1.7 km/h (1 Bft) O-SO 0.00 h 0 W/m 1.7 C 2.6 C 2.7 km/h (1 Bft)
15.01.2008 22:00 2.7 C 94 % 1003.6 hPa 0.0 l/m 1.1 km/h (1 Bft) O-SO 0.00 h 0 W/m 1.8 C 2.6 C 2.0 km/h (1 Bft)
15.01.2008 23:00 2.7 C 95 % 1003.2 hPa 0.0 l/m 2.3 km/h (1 Bft) O-SO 0.00 h 0 W/m 1.9 C 2.3 C 3.4 km/h (1 Bft)
16.01.2008 00:00 2.8 C 95 % 1002.7 hPa 0.0 l/m 1.4 km/h (1 Bft) W 0.00 h 0 W/m 2.1 C 2.7 C 2.4 km/h (1 Bft)
16.01.2008 01:00 2.8 C 95 % 1002.6 hPa 0.0 l/m 1.4 km/h (1 Bft) W-SW 0.00 h 0 W/m 2.2 C 2.7 C 2.5 km/h (1 Bft)
16.01.2008 02:00 3.0 C 96 % 1002.9 hPa 2.0 l/m 1.6 km/h (1 Bft) SO 0.00 h 0 W/m 2.5 C 2.9 C 2.8 km/h (1 Bft)
16.01.2008 03:00 3.3 C 97 % 1002.8 hPa 0.8 l/m 1.2 km/h (1 Bft) W-SW 0.00 h 0 W/m 2.8 C 3.2 C 2.2 km/h (1 Bft)
16.01.2008 04:00 3.7 C 98 % 1002.9 hPa 0.4 l/m 4.3 km/h (1 Bft) O-SO 0.00 h 0 W/m 3.3 C 2.9 C 7.1 km/h (2 Bft)
16.01.2008 05:00 4.5 C 97 % 1001.8 hPa 0.0 l/m 3.5 km/h (1 Bft) O-SO 0.00 h 0 W/m 4.1 C 3.9 C 5.4 km/h (1 Bft)
16.01.2008 06:00 4.5 C 97 % 1001.4 hPa 0.2 l/m 1.8 km/h (1 Bft) NO 0.00 h 0 W/m 4.0 C 4.3 C 2.9 km/h (1 Bft)
16.01.2008 07:00 4.3 C 97 % 1002.2 hPa 1.2 l/m 4.4 km/h (1 Bft) SO 0.00 h 0 W/m 3.9 C 3.5 C 5.8 km/h (2 Bft)
16.01.2008 08:00 4.8 C 98 % 1002.4 hPa 0.6 l/m 4.5 km/h (1 Bft) S-SO 0.00 h 6 W/m 4.5 C 4.1 C 7.7 km/h (2 Bft)
16.01.2008 09:00 4.8 C 97 % 1003.1 hPa 0.8 l/m 4.2 km/h (1 Bft) S 0.00 h 17 W/m 4.3 C 4.3 C 7.9 km/h (2 Bft)
16.01.2008 10:00 4.8 C 96 % 1003.8 hPa 0.4 l/m 5.1 km/h (1 Bft) S-SO 0.00 h 38 W/m 4.2 C 3.9 C 9.0 km/h (2 Bft)
16.01.2008 11:00 5.1 C 95 % 1003.7 hPa 0.2 l/m 2.0 km/h (1 Bft) S-SO 0.00 h 75 W/m 4.3 C 5.0 C 4.0 km/h (1 Bft)
16.01.2008 12:00 5.5 C 91 % 1003.4 hPa 0.0 l/m 4.1 km/h (1 Bft) S-SO 0.00 h 121 W/m 4.2 C 4.9 C 7.3 km/h (2 Bft)
16.01.2008 13:00 5.8 C 89 % 1002.9 hPa 0.0 l/m 2.3 km/h (1 Bft) S-SO 0.05 h 142 W/m 4.1 C 5.5 C 4.5 km/h (1 Bft)
16.01.2008 14:00 6.0 C 87 % 1002.7 hPa 0.0 l/m 4.8 km/h (1 Bft) S-SO 0.02 h 118 W/m 4.0 C 5.4 C 7.5 km/h (2 Bft)
16.01.2008 15:00 6.0 C 86 % 1003.2 hPa 0.0 l/m 2.7 km/h (1 Bft) SO 0.05 h 59 W/m 3.8 C 5.9 C 4.6 km/h (1 Bft)
16.01.2008 16:00 6.2 C 86 % 1003.6 hPa 0.0 l/m 4.4 km/h (1 Bft) SO 0.25 h 37 W/m 3.9 C 5.5 C 6.5 km/h (2 Bft)
16.01.2008 17:00 5.1 C 88 % 1004.1 hPa 0.0 l/m 4.7 km/h (1 Bft) O-SO 0.00 h 0 W/m 3.3 C 4.4 C 6.5 km/h (2 Bft)
16.01.2008 18:00 4.5 C 90 % 1005.0 hPa 0.0 l/m 1.9 km/h (1 Bft) O-NO 0.00 h 0 W/m 3.0 C 4.4 C 3.0 km/h (1 Bft)
16.01.2008 19:00 4.2 C 92 % 1005.9 hPa 0.0 l/m 0.8 km/h (0 Bft) O 0.00 h 0 W/m 2.9 C 4.2 C 1.5 km/h (1 Bft)
16.01.2008 20:00 3.7 C 93 % 1006.6 hPa 0.0 l/m 0.6 km/h (0 Bft) O 0.00 h 0 W/m 2.6 C 3.6 C 0.9 km/h (0 Bft)
16.01.2008 21:00 3.3 C 95 % 1007.4 hPa 0.0 l/m 1.5 km/h (1 Bft) O 0.00 h 0 W/m 2.5 C 3.1 C 3.2 km/h (1 Bft)
16.01.2008 22:00 3.0 C 96 % 1008.1 hPa 0.0 l/m 0.9 km/h (0 Bft) O-SO 0.00 h 0 W/m 2.5 C 2.9 C 1.4 km/h (1 Bft)
16.01.2008 23:00 2.2 C 96 % 1009.0 hPa 0.0 l/m 0.5 km/h (0 Bft) O-SO 0.00 h 0 W/m 1.6 C 2.2 C 1.3 km/h (1 Bft)
17.01.2008 00:00 1.8 C 97 % 1009.7 hPa 0.0 l/m 0.8 km/h (0 Bft) O-SO 0.00 h 0 W/m 1.3 C 1.7 C 1.2 km/h (1 Bft)
17.01.2008 01:00 2.1 C 97 % 1010.3 hPa 0.0 l/m 0.6 km/h (0 Bft) O-SO 0.00 h 0 W/m 1.7 C 2.1 C 1.4 km/h (1 Bft)
17.01.2008 02:00 2.3 C 98 % 1011.1 hPa 0.0 l/m 1.1 km/h (1 Bft) NW 0.00 h 0 W/m 2.0 C 2.3 C 2.3 km/h (1 Bft)
17.01.2008 03:00 2.3 C 98 % 1011.8 hPa 0.0 l/m 3.0 km/h (1 Bft) O-SO 0.00 h 0 W/m 2.1 C 1.7 C 4.3 km/h (1 Bft)
17.01.2008 04:00 2.0 C 98 % 1012.4 hPa 0.0 l/m 0.1 km/h (0 Bft) O-SO 0.00 h 0 W/m 1.7 C 2.0 C 0.5 km/h (0 Bft)
17.01.2008 05:00 1.5 C 99 % 1013.1 hPa 0.0 l/m 0.3 km/h (0 Bft) O-SO 0.00 h 0 W/m 1.4 C 1.5 C 1.0 km/h (0 Bft)
17.01.2008 06:00 1.3 C 99 % 1014.1 hPa 0.0 l/m 1.9 km/h (1 Bft) O-SO 0.00 h 0 W/m 1.1 C 1.1 C 2.8 km/h (1 Bft)
17.01.2008 07:00 0.1 C 99 % 1015.2 hPa 0.0 l/m 0.7 km/h (0 Bft) SO 0.00 h 0 W/m -0.0 C 0.1 C 1.2 km/h (1 Bft)
17.01.2008 08:00 0.5 C 99 % 1016.0 hPa 0.0 l/m 0.8 km/h (0 Bft) SO 0.00 h 13 W/m 0.4 C 0.5 C 1.6 km/h (1 Bft)
17.01.2008 09:00 1.4 C 100 % 1016.6 hPa 0.0 l/m 0.0 km/h (0 Bft) SO 0.00 h 48 W/m 1.4 C 1.4 C 0.4 km/h (0 Bft)
17.01.2008 10:00 2.5 C 100 % 1017.5 hPa 0.0 l/m 0.2 km/h (0 Bft) SO 0.20 h 114 W/m 2.5 C 2.5 C 0.8 km/h (0 Bft)
17.01.2008 11:00 4.0 C 100 % 1017.3 hPa 0.0 l/m 0.3 km/h (0 Bft) O-SO 0.38 h 190 W/m 4.0 C 4.0 C 0.9 km/h (0 Bft)
17.01.2008 12:00 7.4 C 85 % 1016.2 hPa 0.0 l/m 2.7 km/h (1 Bft) W-SW 1.00 h 373 W/m 5.1 C 7.2 C 5.6 km/h (1 Bft)
17.01.2008 13:00 9.0 C 73 % 1015.4 hPa 0.0 l/m 3.0 km/h (1 Bft) N-NW 1.00 h 409 W/m 4.5 C 8.9 C 5.4 km/h (1 Bft)
17.01.2008 14:00 9.1 C 67 % 1015.0 hPa 0.0 l/m 5.1 km/h (1 Bft) W-SW 0.28 h 137 W/m 3.2 C 8.6 C 8.6 km/h (2 Bft)
17.01.2008 15:00 9.4 C 63 % 1014.9 hPa 0.0 l/m 5.1 km/h (1 Bft) SW 0.83 h 116 W/m 2.7 C 9.0 C 9.3 km/h (2 Bft)
17.01.2008 16:00 8.0 C 64 % 1014.9 hPa 0.0 l/m 4.5 km/h (1 Bft) S 0.00 h 25 W/m 1.7 C 7.6 C 7.8 km/h (2 Bft)
17.01.2008 17:00 6.8 C 70 % 1014.8 hPa 0.0 l/m 4.0 km/h (1 Bft) S 0.00 h 0 W/m 1.6 C 6.3 C 7.7 km/h (2 Bft)
17.01.2008 18:00 5.9 C 74 % 1015.1 hPa 0.0 l/m 3.1 km/h (1 Bft) SO 0.00 h 0 W/m 1.6 C 5.6 C 5.2 km/h (1 Bft)
17.01.2008 19:00 5.4 C 76 % 1015.1 hPa 0.0 l/m 2.8 km/h (1 Bft) S-SO 0.00 h 0 W/m 1.6 C 5.1 C 5.0 km/h (1 Bft)
17.01.2008 20:00 5.8 C 75 % 1014.6 hPa 0.0 l/m 3.8 km/h (1 Bft) S-SO 0.00 h 0 W/m 1.8 C 5.4 C 7.0 km/h (2 Bft)
17.01.2008 21:00 5.9 C 75 % 1014.2 hPa 0.0 l/m 6.0 km/h (2 Bft) S-SO 0.00 h 0 W/m 1.9 C 4.9 C 9.2 km/h (2 Bft)
17.01.2008 22:00 6.2 C 74 % 1013.2 hPa 0.0 l/m 3.9 km/h (1 Bft) S-SO 0.00 h 0 W/m 2.0 C 5.7 C 6.9 km/h (2 Bft)
17.01.2008 23:00 5.0 C 84 % 1012.9 hPa 0.0 l/m 2.7 km/h (1 Bft) N 0.00 h 0 W/m 2.4 C 4.8 C 5.2 km/h (1 Bft)
18.01.2008 00:00 4.4 C 90 % 1012.6 hPa 0.2 l/m 1.2 km/h (1 Bft) N 0.00 h 0 W/m 2.9 C 4.3 C 2.7 km/h (1 Bft)
18.01.2008 01:00 4.1 C 96 % 1014.1 hPa 3.2 l/m 4.9 km/h (1 Bft) O-SO 0.00 h 0 W/m 3.5 C 3.1 C 7.3 km/h (2 Bft)
18.01.2008 02:00 4.8 C 97 % 1015.1 hPa 2.0 l/m 2.7 km/h (1 Bft) SO 0.00 h 0 W/m 4.4 C 4.3 C 4.1 km/h (1 Bft)
18.01.2008 03:00 5.5 C 98 % 1016.3 hPa 0.2 l/m 5.4 km/h (1 Bft) SW 0.00 h 0 W/m 5.2 C 4.5 C 10.4 km/h (2 Bft)
18.01.2008 04:00 6.1 C 96 % 1016.7 hPa 0.0 l/m 8.2 km/h (2 Bft) S-SW 0.00 h 0 W/m 5.6 C 4.5 C 15.9 km/h (3 Bft)
18.01.2008 05:00 6.2 C 93 % 1017.8 hPa 1.0 l/m 7.8 km/h (2 Bft) S 0.00 h 0 W/m 5.2 C 4.7 C 15.5 km/h (3 Bft)
18.01.2008 06:00 6.4 C 93 % 1018.6 hPa 0.8 l/m 6.4 km/h (2 Bft) S-SW 0.00 h 0 W/m 5.3 C 5.3 C 13.2 km/h (3 Bft)
18.01.2008 07:00 6.4 C 94 % 1019.4 hPa 0.6 l/m 4.2 km/h (1 Bft) S 0.00 h 0 W/m 5.5 C 5.9 C 7.9 km/h (2 Bft)
18.01.2008 08:00 6.6 C 95 % 1020.6 hPa 1.0 l/m 3.9 km/h (1 Bft) S 0.00 h 9 W/m 5.9 C 6.2 C 7.8 km/h (2 Bft)
18.01.2008 09:00 6.7 C 96 % 1021.8 hPa 2.0 l/m 3.1 km/h (1 Bft) S-SW 0.00 h 23 W/m 6.0 C 6.5 C 6.3 km/h (2 Bft)
18.01.2008 10:00 7.0 C 97 % 1023.0 hPa 0.4 l/m 2.4 km/h (1 Bft) S 0.00 h 67 W/m 6.5 C 6.8 C 5.4 km/h (1 Bft)
18.01.2008 11:00 8.0 C 96 % 1024.0 hPa 0.4 l/m 5.5 km/h (1 Bft) W-NW 0.27 h 166 W/m 7.4 C 7.2 C 8.9 km/h (2 Bft)
18.01.2008 12:00 9.1 C 89 % 1024.1 hPa 0.0 l/m 13.8 km/h (3 Bft) W 0.68 h 245 W/m 7.3 C 6.9 C 21.1 km/h (4 Bft)
18.01.2008 13:00 9.8 C 81 % 1024.0 hPa 0.0 l/m 10.4 km/h (2 Bft) W 0.82 h 195 W/m 6.8 C 8.4 C 16.1 km/h (3 Bft)
18.01.2008 14:00 10.1 C 79 % 1024.1 hPa 0.0 l/m 7.4 km/h (2 Bft) W 0.00 h 113 W/m 6.7 C 10.0 C 10.6 km/h (2 Bft)
18.01.2008 15:00 9.9 C 79 % 1024.4 hPa 0.0 l/m 3.6 km/h (1 Bft) W-SW 0.00 h 39 W/m 6.4 C 9.8 C 6.1 km/h (2 Bft)
18.01.2008 16:00 9.8 C 78 % 1024.9 hPa 0.0 l/m 4.4 km/h (1 Bft) W 0.00 h 14 W/m 6.0 C 9.6 C 6.8 km/h (2 Bft)
18.01.2008 17:00 9.4 C 80 % 1025.7 hPa 0.0 l/m 2.4 km/h (1 Bft) W-SW 0.00 h 0 W/m 6.0 C 9.3 C 4.6 km/h (1 Bft)
18.01.2008 18:00 8.8 C 78 % 1026.4 hPa 0.4 l/m 8.0 km/h (2 Bft) W-SW 0.00 h 0 W/m 5.1 C 7.6 C 12.5 km/h (3 Bft)
18.01.2008 19:00 8.7 C 78 % 1026.1 hPa 0.0 l/m 4.4 km/h (1 Bft) S-SO 0.00 h 0 W/m 5.2 C 8.3 C 7.9 km/h (2 Bft)
18.01.2008 20:00 9.0 C 80 % 1026.0 hPa 0.0 l/m 4.4 km/h (1 Bft) SW 0.00 h 0 W/m 5.7 C 8.7 C 8.6 km/h (2 Bft)
18.01.2008 21:00 9.4 C 78 % 1026.0 hPa 0.0 l/m 4.8 km/h (1 Bft) W-SW 0.00 h 0 W/m 5.8 C 9.0 C 8.7 km/h (2 Bft)
18.01.2008 22:00 8.8 C 82 % 1026.4 hPa 0.0 l/m 2.9 km/h (1 Bft) N 0.00 h 0 W/m 5.8 C 8.6 C 5.4 km/h (1 Bft)
18.01.2008 23:00 8.5 C 86 % 1027.0 hPa 0.0 l/m 2.8 km/h (1 Bft) N 0.00 h 0 W/m 6.4 C 8.4 C 5.2 km/h (1 Bft)
19.01.2008 00:00 8.3 C 87 % 1026.9 hPa 0.0 l/m 1.5 km/h (1 Bft) N-NW 0.00 h 0 W/m 6.2 C 8.2 C 3.0 km/h (1 Bft)
19.01.2008 01:00 7.8 C 89 % 1027.0 hPa 0.0 l/m 1.0 km/h (0 Bft) N-NW 0.00 h 0 W/m 6.1 C 7.8 C 2.4 km/h (1 Bft)
19.01.2008 02:00 8.6 C 86 % 1027.4 hPa 0.0 l/m 4.2 km/h (1 Bft) W 0.00 h 0 W/m 6.4 C 8.1 C 6.8 km/h (2 Bft)
19.01.2008 03:00 10.7 C 80 % 1027.6 hPa 0.0 l/m 16.0 km/h (3 Bft) W 0.00 h 0 W/m 7.5 C 10.5 C 22.9 km/h (4 Bft)
19.01.2008 04:00 10.9 C 78 % 1027.8 hPa 0.0 l/m 10.8 km/h (2 Bft) W 0.00 h 0 W/m 7.3 C 10.9 C 15.8 km/h (3 Bft)
19.01.2008 05:00 11.0 C 74 % 1028.1 hPa 0.0 l/m 16.1 km/h (3 Bft) W 0.00 h 0 W/m 6.6 C 11.0 C 22.6 km/h (4 Bft)
19.01.2008 06:00 11.0 C 73 % 1028.8 hPa 0.0 l/m 11.7 km/h (2 Bft) W 0.00 h 0 W/m 6.4 C 11.0 C 17.6 km/h (3 Bft)
19.01.2008 07:00 10.8 C 75 % 1029.5 hPa 0.0 l/m 2.8 km/h (1 Bft) S-SO 0.00 h 0 W/m 6.5 C 10.8 C 4.9 km/h (1 Bft)
19.01.2008 08:00 9.9 C 78 % 1030.0 hPa 0.0 l/m 3.7 km/h (1 Bft) S 0.23 h 22 W/m 6.2 C 9.8 C 7.2 km/h (2 Bft)
19.01.2008 09:00 10.2 C 76 % 1030.3 hPa 0.0 l/m 4.1 km/h (1 Bft) S-SW 0.05 h 60 W/m 6.1 C 10.2 C 8.4 km/h (2 Bft)
19.01.2008 10:00 10.8 C 73 % 1030.5 hPa 0.0 l/m 7.0 km/h (2 Bft) S 0.00 h 93 W/m 6.1 C 10.8 C 12.7 km/h (3 Bft)
19.01.2008 11:00 11.9 C 68 % 1030.4 hPa 0.0 l/m 4.9 km/h (1 Bft) SW 0.00 h 117 W/m 6.2 C 11.9 C 9.5 km/h (2 Bft)
19.01.2008 12:00 12.4 C 66 % 1030.1 hPa 0.0 l/m 4.5 km/h (1 Bft) SW 0.00 h 133 W/m 6.1 C 12.4 C 8.6 km/h (2 Bft)
19.01.2008 13:00 12.6 C 64 % 1029.8 hPa 0.0 l/m 6.6 km/h (2 Bft) W-SW 0.00 h 116 W/m 6.1 C 12.6 C 11.2 km/h (2 Bft)
19.01.2008 14:00 12.5 C 64 % 1029.6 hPa 0.0 l/m 6.6 km/h (2 Bft) W-SW 0.00 h 81 W/m 5.9 C 12.5 C 10.3 km/h (2 Bft)
19.01.2008 15:00 13.0 C 55 % 1029.7 hPa 0.0 l/m 16.9 km/h (3 Bft) W 0.00 h 73 W/m 4.2 C 13.0 C 24.6 km/h (4 Bft)
19.01.2008 16:00 12.8 C 55 % 1030.0 hPa 0.0 l/m 12.2 km/h (2 Bft) W 0.00 h 26 W/m 4.0 C 12.8 C 18.4 km/h (3 Bft)
19.01.2008 17:00 12.3 C 57 % 1030.3 hPa 0.0 l/m 6.0 km/h (2 Bft) W-SW 0.00 h 5 W/m 4.1 C 12.3 C 9.6 km/h (2 Bft)
19.01.2008 18:00 12.1 C 57 % 1030.4 hPa 0.0 l/m 6.8 km/h (2 Bft) W-SW 0.00 h 0 W/m 3.8 C 12.1 C 10.8 km/h (2 Bft)
19.01.2008 19:00 11.8 C 59 % 1030.6 hPa 0.0 l/m 4.4 km/h (1 Bft) SW 0.00 h 0 W/m 4.0 C 11.8 C 8.5 km/h (2 Bft)
19.01.2008 20:00 11.2 C 62 % 1031.0 hPa 0.0 l/m 3.5 km/h (1 Bft) SW 0.00 h 0 W/m 4.3 C 11.2 C 6.6 km/h (2 Bft)
19.01.2008 21:00 10.7 C 66 % 1031.3 hPa 0.0 l/m 2.8 km/h (1 Bft) SW 0.00 h 0 W/m 4.5 C 10.7 C 6.1 km/h (2 Bft)
19.01.2008 22:00 10.2 C 68 % 1031.5 hPa 0.0 l/m 4.3 km/h (1 Bft) S 0.00 h 0 W/m 4.7 C 10.2 C 7.8 km/h (2 Bft)
19.01.2008 23:00 10.0 C 69 % 1031.4 hPa 0.0 l/m 4.4 km/h (1 Bft) S 0.00 h 0 W/m 4.5 C 9.8 C 8.5 km/h (2 Bft)
20.01.2008 00:00 9.8 C 68 % 1031.2 hPa 0.0 l/m 4.7 km/h (1 Bft) S 0.00 h 0 W/m 4.2 C 9.5 C 9.0 km/h (2 Bft)
20.01.2008 01:00 9.6 C 70 % 1030.7 hPa 0.0 l/m 4.2 km/h (1 Bft) S 0.00 h 0 W/m 4.3 C 9.3 C 7.9 km/h (2 Bft)
20.01.2008 02:00 9.5 C 70 % 1030.6 hPa 0.0 l/m 4.5 km/h (1 Bft) S 0.00 h 0 W/m 4.2 C 9.2 C 8.6 km/h (2 Bft)
20.01.2008 03:00 9.2 C 70 % 1030.5 hPa 0.0 l/m 4.6 km/h (1 Bft) S 0.00 h 0 W/m 4.1 C 8.9 C 8.3 km/h (2 Bft)
20.01.2008 04:00 9.0 C 71 % 1030.4 hPa 0.0 l/m 4.7 km/h (1 Bft) S 0.00 h 0 W/m 4.1 C 8.7 C 8.9 km/h (2 Bft)
20.01.2008 05:00 8.7 C 73 % 1030.5 hPa 0.0 l/m 2.5 km/h (1 Bft) S-SW 0.00 h 0 W/m 4.1 C 8.7 C 5.4 km/h (1 Bft)
20.01.2008 06:00 8.5 C 73 % 1030.5 hPa 0.0 l/m 3.9 km/h (1 Bft) S 0.00 h 0 W/m 3.9 C 8.2 C 7.8 km/h (2 Bft)
20.01.2008 07:00 8.3 C 74 % 1030.8 hPa 0.0 l/m 4.4 km/h (1 Bft) S 0.00 h 0 W/m 4.0 C 7.9 C 8.4 km/h (2 Bft)
20.01.2008 08:00 8.0 C 75 % 1031.1 hPa 0.0 l/m 4.6 km/h (1 Bft) S-SW 0.00 h 15 W/m 3.9 C 7.6 C 9.2 km/h (2 Bft)
20.01.2008 09:00 8.3 C 74 % 1031.2 hPa 0.0 l/m 4.3 km/h (1 Bft) S 0.25 h 99 W/m 4.0 C 7.9 C 8.7 km/h (2 Bft)
20.01.2008 10:00 9.4 C 70 % 1030.7 hPa 0.0 l/m 6.1 km/h (2 Bft) S-SW 0.40 h 154 W/m 4.2 C 8.8 C 11.8 km/h (2 Bft)
20.01.2008 11:00 10.5 C 66 % 1030.5 hPa 0.0 l/m 4.5 km/h (1 Bft) W-SW 0.93 h 283 W/m 4.4 C 10.3 C 8.2 km/h (2 Bft)
20.01.2008 12:00 11.6 C 59 % 1029.6 hPa 0.0 l/m 10.4 km/h (2 Bft) W 1.00 h 345 W/m 3.9 C 11.6 C 15.8 km/h (3 Bft)
20.01.2008 13:00 11.9 C 57 % 1028.7 hPa 0.0 l/m 10.5 km/h (2 Bft) W 1.00 h 325 W/m 3.8 C 11.9 C 16.0 km/h (3 Bft)
20.01.2008 14:00 12.1 C 59 % 1028.2 hPa 0.0 l/m 11.4 km/h (2 Bft) W 1.00 h 262 W/m 4.2 C 12.1 C 16.5 km/h (3 Bft)
20.01.2008 15:00 12.0 C 59 % 1027.9 hPa 0.0 l/m 9.2 km/h (2 Bft) W 1.00 h 151 W/m 4.2 C 12.0 C 13.6 km/h (3 Bft)
20.01.2008 16:00 10.9 C 63 % 1027.8 hPa 0.0 l/m 6.5 km/h (2 Bft) W-SW 0.30 h 41 W/m 4.0 C 10.9 C 9.6 km/h (2 Bft)
20.01.2008 17:00 9.7 C 67 % 1027.9 hPa 0.0 l/m 5.2 km/h (1 Bft) W-SW 0.00 h 5 W/m 3.9 C 9.4 C 7.5 km/h (2 Bft)
20.01.2008 18:00 8.3 C 73 % 1027.9 hPa 0.0 l/m 1.0 km/h (0 Bft) W-SW 0.00 h 0 W/m 3.7 C 8.3 C 2.3 km/h (1 Bft)
20.01.2008 19:00 6.6 C 79 % 1027.8 hPa 0.0 l/m 0.9 km/h (0 Bft) S-SW 0.00 h 0 W/m 3.3 C 6.6 C 2.3 km/h (1 Bft)
20.01.2008 20:00 5.3 C 84 % 1027.9 hPa 0.0 l/m 0.6 km/h (0 Bft) S 0.00 h 0 W/m 2.8 C 5.3 C 1.8 km/h (1 Bft)
20.01.2008 21:00 3.9 C 89 % 1028.2 hPa 0.0 l/m 0.2 km/h (0 Bft) S 0.00 h 0 W/m 2.3 C 3.9 C 0.7 km/h (0 Bft)
20.01.2008 22:00 3.5 C 91 % 1028.3 hPa 0.0 l/m 0.4 km/h (0 Bft) S 0.00 h 0 W/m 2.1 C 3.5 C 0.8 km/h (0 Bft)
20.01.2008 23:00 3.1 C 93 % 1028.0 hPa 0.0 l/m 1.7 km/h (1 Bft) O-SO 0.00 h 0 W/m 2.1 C 3.1 C 3.2 km/h (1 Bft)
Min-Datum _ 17.01.08 19.01.08 16.01.08 - 14.01.08 - - - 14.01.08 17.01.08 14.01.08
_ Min-Zeit 07:00 15:35 06:15 - 00:05 - - - 08:26 06:50 00:06
Minimum _ 0.1 C 52 % 1001.2 hPa - 0.0 km/h (0 Bft) - - - -0.5 C -1.1 C 0.0 km/h (0 Bft)
Max-Datum _ 19.01.08 17.01.08 19.01.08 18.01.08 19.01.08 - 14.01.08 17.01.08 18.01.08 19.01.08 19.01.08
_ Max-Zeit 15:36 09:06 22:30 01:00 15:34 - 11:20 12:45 12:51 15:36 15:34
Maximum _ 13.1 C 100 % 1031.6 hPa 3.2 l/m 31.3 km/h
W (5 Bft)
- 0.02 h 466 W/m 7.9 C 13.1 C 41.1 km/h
W (6 Bft)
Durchschnitt _ 6.0 C 84 % 1018.0 hPa #21.8 l/m 3.5 km/h (1 Bft) S #15:16 h 109 W/m 3.3 C 5.7 C 6.1 km/h (2 Bft)
© Kaiko 2008